Terminal Aerodrome Forecast
Issued by NWS

Home | Current Version | Previous Version | Text Only | Print | Product List | Glossary On
Versions: 1 2 3 4 5 6 7 8 9 10 11 12
955
FTUS42 KTBW 132326
TAFPGD
TAF
KPGD 132326Z 1400/1424 29006KT P6SM SKC
     FM140200 VRB02KT P6SM SKC
     FM141500 17006KT P6SM FEW025 SCT050
     FM141700 23008KT P6SM SCT030 BKN060=

USA.gov is the U.S. government's official web portal to all federal, state and local government web resources and services.